sensor_id;sensor_type;location;lat;lon;timestamp;pressure;altitude;pressure_sealevel;temperature;humidity
65127;BME280;51927;49.080;19.652;2022-11-20T00:00:00;93904.59;;;25.40;39.85
65127;BME280;51927;49.080;19.652;2022-11-20T00:00:05;93901.91;;;25.40;40.05
65127;BME280;51927;49.080;19.652;2022-11-20T00:00:10;93908.84;;;25.41;40.20
65127;BME280;51927;49.080;19.652;2022-11-20T00:00:16;93907.25;;;25.40;40.14
65127;BME280;51927;49.080;19.652;2022-11-20T00:00:21;93901.91;;;25.40;40.30
65127;BME280;51927;49.080;19.652;2022-11-20T00:00:26;93906.16;;;25.41;40.03
65127;BME280;51927;49.080;19.652;2022-11-20T00:00:32;93904.59;;;25.40;40.31
65127;BME280;51927;49.080;19.652;2022-11-20T00:00:37;93902.72;;;25.41;39.79
65127;BME280;51927;49.080;19.652;2022-11-20T00:00:42;93903.03;;;25.39;40.21
65127;BME280;51927;49.080;19.652;2022-11-20T00:00:47;93904.59;;;25.40;39.98
65127;BME280;51927;49.080;19.652;2022-11-20T00:00:52;93901.91;;;25.40;40.05
65127;BME280;51927;49.080;19.652;2022-11-20T00:01:03;93904.59;;;25.40;40.10
65127;BME280;51927;49.080;19.652;2022-11-20T00:01:16;93902.72;;;25.41;39.80
65127;BME280;51927;49.080;19.652;2022-11-20T00:01:22;93897.69;;;25.39;40.30
65127;BME280;51927;49.080;19.652;2022-11-20T00:01:28;93900.38;;;25.39;39.86
65127;BME280;51927;49.080;19.652;2022-11-20T00:01:33;93904.59;;;25.40;39.96
65127;BME280;51927;49.080;19.652;2022-11-20T00:01:38;93906.16;;;25.41;40.09
65127;BME280;51927;49.080;19.652;2022-11-20T00:01:43;93900.03;;;25.41;40.21
65127;BME280;51927;49.080;19.652;2022-11-20T00:01:49;93901.91;;;25.40;40.20
65127;BME280;51927;49.080;19.652;2022-11-20T00:01:54;93904.25;;;25.42;39.95
65127;BME280;51927;49.080;19.652;2022-11-20T00:01:59;93903.47;;;25.41;39.85
65127;BME280;51927;49.080;19.652;2022-11-20T00:02:04;93902.72;;;25.41;40.23
65127;BME280;51927;49.080;19.652;2022-11-20T00:02:09;93897.34;;;25.41;39.99
65127;BME280;51927;49.080;19.652;2022-11-20T00:02:14;93903.47;;;25.41;40.08
65127;BME280;51927;49.080;19.652;2022-11-20T00:02:20;93902.72;;;25.41;39.76
65127;BME280;51927;49.080;19.652;2022-11-20T00:02:25;93893.53;;;25.42;40.15
65127;BME280;51927;49.080;19.652;2022-11-20T00:02:30;93902.72;;;25.41;40.29
65127;BME280;51927;49.080;19.652;2022-11-20T00:02:35;93900.78;;;25.41;39.98
65127;BME280;51927;49.080;19.652;2022-11-20T00:02:40;93898.88;;;25.42;40.10
65127;BME280;51927;49.080;19.652;2022-11-20T00:02:46;93898.13;;;25.41;40.18
65127;BME280;51927;49.080;19.652;2022-11-20T00:02:51;93900.78;;;25.41;40.13
65127;BME280;51927;49.080;19.652;2022-11-20T00:02:56;93902.38;;;25.42;39.91
65127;BME280;51927;49.080;19.652;2022-11-20T00:03:01;93899.69;;;25.42;40.05
65127;BME280;51927;49.080;19.652;2022-11-20T00:03:06;93899.69;;;25.42;40.33
65127;BME280;51927;49.080;19.652;2022-11-20T00:03:12;93898.88;;;25.42;40.04
65127;BME280;51927;49.080;19.652;2022-11-20T00:03:17;93910.41;;;25.42;40.20
65127;BME280;51927;49.080;19.652;2022-11-20T00:03:22;93905.03;;;25.42;40.29
65127;BME280;51927;49.080;19.652;2022-11-20T00:03:27;93900.78;;;25.41;40.02
65127;BME280;51927;49.080;19.652;2022-11-20T00:03:33;93895.44;;;25.41;39.88
65127;BME280;51927;49.080;19.652;2022-11-20T00:03:38;93903.47;;;25.41;40.26
65127;BME280;51927;49.080;19.652;2022-11-20T00:03:43;93899.69;;;25.42;39.96
65127;BME280;51927;49.080;19.652;2022-11-20T00:03:50;93903.47;;;25.41;39.80
65127;BME280;51927;49.080;19.652;2022-11-20T00:03:56;93903.47;;;25.41;40.13
65127;BME280;51927;49.080;19.652;2022-11-20T00:04:02;93900.78;;;25.41;39.78
65127;BME280;51927;49.080;19.652;2022-11-20T00:04:08;93897.00;;;25.42;39.95
65127;BME280;51927;49.080;19.652;2022-11-20T00:04:13;93900.03;;;25.41;40.02
65127;BME280;51927;49.080;19.652;2022-11-20T00:04:18;93904.25;;;25.42;40.07
65127;BME280;51927;49.080;19.652;2022-11-20T00:04:24;93896.22;;;25.42;40.28
65127;BME280;51927;49.080;19.652;2022-11-20T00:04:29;93895.44;;;25.41;39.99
65127;BME280;51927;49.080;19.652;2022-11-20T00:04:34;93897.00;;;25.42;39.91
65127;BME280;51927;49.080;19.652;2022-11-20T00:04:39;93898.13;;;25.41;39.86
65127;BME280;51927;49.080;19.652;2022-11-20T00:04:44;93895.44;;;25.41;39.79
65127;BME280;51927;49.080;19.652;2022-11-20T00:04:50;93898.13;;;25.41;40.22
65127;BME280;51927;49.080;19.652;2022-11-20T00:04:55;93898.88;;;25.42;40.13
65127;BME280;51927;49.080;19.652;2022-11-20T00:05:00;93893.53;;;25.42;39.84
65127;BME280;51927;49.080;19.652;2022-11-20T00:05:05;93898.13;;;25.41;40.17
65127;BME280;51927;49.080;19.652;2022-11-20T00:05:11;93899.69;;;25.42;40.32
65127;BME280;51927;49.080;19.652;2022-11-20T00:05:16;93900.78;;;25.41;39.93
65127;BME280;51927;49.080;19.652;2022-11-20T00:05:21;93895.44;;;25.41;39.75
65127;BME280;51927;49.080;19.652;2022-11-20T00:05:27;93892.75;;;25.41;39.90
65127;BME280;51927;49.080;19.652;2022-11-20T00:05:32;93896.22;;;25.42;40.17
65127;BME280;51927;49.080;19.652;2022-11-20T00:05:37;93893.53;;;25.42;39.72
65127;BME280;51927;49.080;19.652;2022-11-20T00:05:43;93896.22;;;25.42;39.92
65127;BME280;51927;49.080;19.652;2022-11-20T00:05:48;93893.53;;;25.42;39.85
65127;BME280;51927;49.080;19.652;2022-11-20T00:05:54;93896.22;;;25.42;39.79
65127;BME280;51927;49.080;19.652;2022-11-20T00:05:59;93898.13;;;25.41;40.11
65127;BME280;51927;49.080;19.652;2022-11-20T00:06:06;93893.53;;;25.42;39.91
65127;BME280;51927;49.080;19.652;2022-11-20T00:06:13;93894.31;;;25.42;39.76
65127;BME280;51927;49.080;19.652;2022-11-20T00:06:18;93896.22;;;25.42;40.03
65127;BME280;51927;49.080;19.652;2022-11-20T00:06:24;93892.75;;;25.41;40.22
65127;BME280;51927;49.080;19.652;2022-11-20T00:06:30;93889.31;;;25.41;40.17
65127;BME280;51927;49.080;19.652;2022-11-20T00:06:35;93888.16;;;25.42;39.93
65127;BME280;51927;49.080;19.652;2022-11-20T00:06:40;93891.19;;;25.40;39.86
65127;BME280;51927;49.080;19.652;2022-11-20T00:06:46;93894.66;;;25.41;40.10
65127;BME280;51927;49.080;19.652;2022-11-20T00:06:51;93898.13;;;25.41;39.85
65127;BME280;51927;49.080;19.652;2022-11-20T00:06:56;93891.19;;;25.40;40.05
65127;BME280;51927;49.080;19.652;2022-11-20T00:07:01;93895.44;;;25.41;40.14
65127;BME280;51927;49.080;19.652;2022-11-20T00:07:07;93888.16;;;25.42;39.95
65127;BME280;51927;49.080;19.652;2022-11-20T00:07:12;93891.97;;;25.41;39.83
65127;BME280;51927;49.080;19.652;2022-11-20T00:07:17;93895.44;;;25.41;39.88
65127;BME280;51927;49.080;19.652;2022-11-20T00:07:22;93891.97;;;25.41;40.34
65127;BME280;51927;49.080;19.652;2022-11-20T00:07:27;93893.53;;;25.42;39.92
65127;BME280;51927;49.080;19.652;2022-11-20T00:07:32;93892.75;;;25.41;40.02
65127;BME280;51927;49.080;19.652;2022-11-20T00:07:38;93889.31;;;25.41;40.21
65127;BME280;51927;49.080;19.652;2022-11-20T00:07:43;93887.41;;;25.41;40.08
65127;BME280;51927;49.080;19.652;2022-11-20T00:07:48;93887.41;;;25.41;40.11
65127;BME280;51927;49.080;19.652;2022-11-20T00:07:53;93892.75;;;25.41;39.96
65127;BME280;51927;49.080;19.652;2022-11-20T00:07:58;93894.66;;;25.41;40.01
65127;BME280;51927;49.080;19.652;2022-11-20T00:08:04;93896.22;;;25.42;40.05
65127;BME280;51927;49.080;19.652;2022-11-20T00:08:09;93891.66;;;25.42;40.27
65127;BME280;51927;49.080;19.652;2022-11-20T00:08:14;93894.31;;;25.42;40.32
65127;BME280;51927;49.080;19.652;2022-11-20T00:08:20;93891.97;;;25.41;40.02
65127;BME280;51927;49.080;19.652;2022-11-20T00:08:25;93894.31;;;25.42;40.15
65127;BME280;51927;49.080;19.652;2022-11-20T00:08:30;93891.66;;;25.42;39.78
65127;BME280;51927;49.080;19.652;2022-11-20T00:08:35;93892.75;;;25.41;40.14
65127;BME280;51927;49.080;19.652;2022-11-20T00:08:41;93893.53;;;25.42;40.01
65127;BME280;51927;49.080;19.652;2022-11-20T00:08:46;93886.63;;;25.41;40.18
65127;BME280;51927;49.080;19.652;2022-11-20T00:08:53;93888.16;;;25.42;40.11
65127;BME280;51927;49.080;19.652;2022-11-20T00:08:59;93895.09;;;25.43;39.72
65127;BME280;51927;49.080;19.652;2022-11-20T00:09:05;93891.66;;;25.42;39.90
65127;BME280;51927;49.080;19.652;2022-11-20T00:09:10;93890.84;;;25.42;40.18
65127;BME280;51927;49.080;19.652;2022-11-20T00:09:15;93893.53;;;25.42;40.29
65127;BME280;51927;49.080;19.652;2022-11-20T00:09:20;93888.16;;;25.42;40.18
65127;BME280;51927;49.080;19.652;2022-11-20T00:09:25;93888.16;;;25.42;40.26
65127;BME280;51927;49.080;19.652;2022-11-20T00:09:30;93891.66;;;25.42;39.90
65127;BME280;51927;49.080;19.652;2022-11-20T00:09:36;93888.97;;;25.42;40.04
65127;BME280;51927;49.080;19.652;2022-11-20T00:09:41;93886.28;;;25.42;40.18
65127;BME280;51927;49.080;19.652;2022-11-20T00:09:46;93891.66;;;25.42;39.85
65127;BME280;51927;49.080;19.652;2022-11-20T00:09:51;93894.31;;;25.42;40.01
65127;BME280;51927;49.080;19.652;2022-11-20T00:09:56;93891.66;;;25.42;39.75
65127;BME280;51927;49.080;19.652;2022-11-20T00:10:02;93893.53;;;25.42;39.97
65127;BME280;51927;49.080;19.652;2022-11-20T00:10:07;93886.28;;;25.42;40.21
65127;BME280;51927;49.080;19.652;2022-11-20T00:10:12;93890.84;;;25.42;40.24
65127;BME280;51927;49.080;19.652;2022-11-20T00:10:17;93896.22;;;25.42;39.95
65127;BME280;51927;49.080;19.652;2022-11-20T00:10:22;93887.41;;;25.41;40.14
65127;BME280;51927;49.080;19.652;2022-11-20T00:10:28;93888.16;;;25.42;39.72
65127;BME280;51927;49.080;19.652;2022-11-20T00:10:35;93890.84;;;25.42;39.88
65127;BME280;51927;49.080;19.652;2022-11-20T00:10:40;93892.75;;;25.41;39.72
65127;BME280;51927;49.080;19.652;2022-11-20T00:10:46;93895.44;;;25.41;40.24
65127;BME280;51927;49.080;19.652;2022-11-20T00:10:51;93890.06;;;25.41;39.97
65127;BME280;51927;49.080;19.652;2022-11-20T00:10:56;93898.13;;;25.41;39.98
65127;BME280;51927;49.080;19.652;2022-11-20T00:11:02;93887.41;;;25.41;39.78
65127;BME280;51927;49.080;19.652;2022-11-20T00:11:17;93898.13;;;25.41;40.05
65127;BME280;51927;49.080;19.652;2022-11-20T00:11:23;93892.75;;;25.41;40.09
65127;BME280;51927;49.080;19.652;2022-11-20T00:11:29;93893.53;;;25.42;39.92
65127;BME280;51927;49.080;19.652;2022-11-20T00:11:34;93888.16;;;25.42;39.72
65127;BME280;51927;49.080;19.652;2022-11-20T00:11:40;93890.06;;;25.41;39.85
65127;BME280;51927;49.080;19.652;2022-11-20T00:11:45;93893.53;;;25.42;39.98
65127;BME280;51927;49.080;19.652;2022-11-20T00:11:50;93893.53;;;25.42;40.02
65127;BME280;51927;49.080;19.652;2022-11-20T00:11:55;93892.75;;;25.41;40.11
65127;BME280;51927;49.080;19.652;2022-11-20T00:12:00;93898.13;;;25.41;39.73
65127;BME280;51927;49.080;19.652;2022-11-20T00:12:06;93895.44;;;25.41;40.17
65127;BME280;51927;49.080;19.652;2022-11-20T00:12:11;93892.75;;;25.41;40.13
65127;BME280;51927;49.080;19.652;2022-11-20T00:12:16;93897.34;;;25.41;40.22
65127;BME280;51927;49.080;19.652;2022-11-20T00:12:21;93892.75;;;25.41;39.77
65127;BME280;51927;49.080;19.652;2022-11-20T00:12:26;93905.38;;;25.41;40.29
65127;BME280;51927;49.080;19.652;2022-11-20T00:12:31;93892.75;;;25.41;40.20
65127;BME280;51927;49.080;19.652;2022-11-20T00:12:37;93893.88;;;25.40;40.22
65127;BME280;51927;49.080;19.652;2022-11-20T00:12:42;93895.44;;;25.41;39.98
65127;BME280;51927;49.080;19.652;2022-11-20T00:12:47;93894.66;;;25.41;40.12
65127;BME280;51927;49.080;19.652;2022-11-20T00:12:52;93904.25;;;25.42;39.75
65127;BME280;51927;49.080;19.652;2022-11-20T00:12:58;93896.53;;;25.40;40.36
65127;BME280;51927;49.080;19.652;2022-11-20T00:13:03;93894.66;;;25.41;40.22
65127;BME280;51927;49.080;19.652;2022-11-20T00:13:08;93895.44;;;25.41;40.10
65127;BME280;51927;49.080;19.652;2022-11-20T00:13:13;93903.47;;;25.41;39.92
65127;BME280;51927;49.080;19.652;2022-11-20T00:13:18;93900.03;;;25.41;40.14
65127;BME280;51927;49.080;19.652;2022-11-20T00:13:24;93894.66;;;25.41;40.24
65127;BME280;51927;49.080;19.652;2022-11-20T00:13:29;93901.91;;;25.40;40.18
65127;BME280;51927;49.080;19.652;2022-11-20T00:13:34;93902.72;;;25.41;40.03
65127;BME280;51927;49.080;19.652;2022-11-20T00:13:40;93898.13;;;25.41;40.21
65127;BME280;51927;49.080;19.652;2022-11-20T00:13:45;93901.13;;;25.40;39.86
65127;BME280;51927;49.080;19.652;2022-11-20T00:13:52;93894.66;;;25.41;40.02
65127;BME280;51927;49.080;19.652;2022-11-20T00:13:58;93904.59;;;25.40;40.09
65127;BME280;51927;49.080;19.652;2022-11-20T00:14:04;93899.22;;;25.40;39.93
65127;BME280;51927;49.080;19.652;2022-11-20T00:14:09;93901.13;;;25.40;39.99
65127;BME280;51927;49.080;19.652;2022-11-20T00:14:15;93901.91;;;25.40;40.35
65127;BME280;51927;49.080;19.652;2022-11-20T00:14:20;93901.91;;;25.40;39.90
65127;BME280;51927;49.080;19.652;2022-11-20T00:14:25;93901.91;;;25.40;40.35
65127;BME280;51927;49.080;19.652;2022-11-20T00:14:30;93895.00;;;25.39;40.02
65127;BME280;51927;49.080;19.652;2022-11-20T00:14:35;93901.13;;;25.40;39.97
65127;BME280;51927;49.080;19.652;2022-11-20T00:14:40;93905.72;;;25.39;40.21
65127;BME280;51927;49.080;19.652;2022-11-20T00:14:46;93897.69;;;25.39;40.16
65127;BME280;51927;49.080;19.652;2022-11-20T00:14:51;93898.13;;;25.41;40.34
65127;BME280;51927;49.080;19.652;2022-11-20T00:14:56;93900.38;;;25.39;40.03
65127;BME280;51927;49.080;19.652;2022-11-20T00:15:01;93896.88;;;25.39;39.90
65127;BME280;51927;49.080;19.652;2022-11-20T00:15:07;93905.72;;;25.39;40.03
65127;BME280;51927;49.080;19.652;2022-11-20T00:15:12;93900.38;;;25.39;40.19
65127;BME280;51927;49.080;19.652;2022-11-20T00:15:18;93903.03;;;25.39;39.75
65127;BME280;51927;49.080;19.652;2022-11-20T00:15:23;93904.59;;;25.40;40.08
65127;BME280;51927;49.080;19.652;2022-11-20T00:15:28;93906.50;;;25.40;40.06
65127;BME280;51927;49.080;19.652;2022-11-20T00:15:33;93903.03;;;25.39;40.28
65127;BME280;51927;49.080;19.652;2022-11-20T00:15:38;93902.25;;;25.39;39.80
65127;BME280;51927;49.080;19.652;2022-11-20T00:15:44;93901.13;;;25.40;40.34
65127;BME280;51927;49.080;19.652;2022-11-20T00:15:56;93906.50;;;25.40;40.47
65127;BME280;51927;49.080;19.652;2022-11-20T00:16:02;93916.44;;;25.39;39.83
65127;BME280;51927;49.080;19.652;2022-11-20T00:16:09;93906.50;;;25.40;39.78
65127;BME280;51927;49.080;19.652;2022-11-20T00:16:15;93907.25;;;25.40;40.12
65127;BME280;51927;49.080;19.652;2022-11-20T00:16:22;93913.75;;;25.39;40.11
65127;BME280;51927;49.080;19.652;2022-11-20T00:16:28;93907.25;;;25.40;40.27
65127;BME280;51927;49.080;19.652;2022-11-20T00:16:34;93915.66;;;25.39;40.37
65127;BME280;51927;49.080;19.652;2022-11-20T00:16:39;93911.09;;;25.39;40.16
65127;BME280;51927;49.080;19.652;2022-11-20T00:16:45;93900.38;;;25.39;39.94
65127;BME280;51927;49.080;19.652;2022-11-20T00:16:50;93907.25;;;25.40;39.81
65127;BME280;51927;49.080;19.652;2022-11-20T00:16:55;93911.09;;;25.39;39.80
65127;BME280;51927;49.080;19.652;2022-11-20T00:17:00;93904.59;;;25.40;40.23
65127;BME280;51927;49.080;19.652;2022-11-20T00:17:05;93905.72;;;25.39;40.35
65127;BME280;51927;49.080;19.652;2022-11-20T00:17:11;93905.72;;;25.39;40.11
65127;BME280;51927;49.080;19.652;2022-11-20T00:17:16;93905.72;;;25.39;40.23
65127;BME280;51927;49.080;19.652;2022-11-20T00:17:21;93911.09;;;25.39;40.04
65127;BME280;51927;49.080;19.652;2022-11-20T00:17:26;93911.09;;;25.39;39.78
65127;BME280;51927;49.080;19.652;2022-11-20T00:17:31;93906.50;;;25.40;39.88
65127;BME280;51927;49.080;19.652;2022-11-20T00:17:36;93906.50;;;25.40;39.81
65127;BME280;51927;49.080;19.652;2022-11-20T00:17:41;93907.25;;;25.40;40.35
65127;BME280;51927;49.080;19.652;2022-11-20T00:17:47;93911.09;;;25.39;40.03
65127;BME280;51927;49.080;19.652;2022-11-20T00:17:52;93911.84;;;25.40;40.02
65127;BME280;51927;49.080;19.652;2022-11-20T00:17:57;93912.63;;;25.40;39.79
65127;BME280;51927;49.080;19.652;2022-11-20T00:18:02;93905.72;;;25.39;39.87
65127;BME280;51927;49.080;19.652;2022-11-20T00:18:07;93912.63;;;25.40;40.37
65127;BME280;51927;49.080;19.652;2022-11-20T00:18:13;93911.09;;;25.39;39.81
65127;BME280;51927;49.080;19.652;2022-11-20T00:18:18;93905.72;;;25.39;39.92
65127;BME280;51927;49.080;19.652;2022-11-20T00:18:23;93911.09;;;25.39;40.05
65127;BME280;51927;49.080;19.652;2022-11-20T00:18:28;93905.72;;;25.39;40.02
65127;BME280;51927;49.080;19.652;2022-11-20T00:18:34;93907.25;;;25.40;40.24
65127;BME280;51927;49.080;19.652;2022-11-20T00:18:39;93911.84;;;25.40;40.04
65127;BME280;51927;49.080;19.652;2022-11-20T00:18:45;93911.09;;;25.39;40.05
65127;BME280;51927;49.080;19.652;2022-11-20T00:18:50;93905.72;;;25.39;39.97
65127;BME280;51927;49.080;19.652;2022-11-20T00:18:56;93905.72;;;25.39;40.24
65127;BME280;51927;49.080;19.652;2022-11-20T00:19:01;93903.03;;;25.39;40.04
65127;BME280;51927;49.080;19.652;2022-11-20T00:19:06;93911.84;;;25.40;40.29
65127;BME280;51927;49.080;19.652;2022-11-20T00:19:11;93914.53;;;25.40;40.04
65127;BME280;51927;49.080;19.652;2022-11-20T00:19:17;93907.25;;;25.40;39.83
65127;BME280;51927;49.080;19.652;2022-11-20T00:19:22;93913.75;;;25.39;39.84
65127;BME280;51927;49.080;19.652;2022-11-20T00:19:27;93918.00;;;25.40;40.20
65127;BME280;51927;49.080;19.652;2022-11-20T00:19:32;93919.91;;;25.40;40.34
65127;BME280;51927;49.080;19.652;2022-11-20T00:19:37;93908.41;;;25.39;40.08
65127;BME280;51927;49.080;19.652;2022-11-20T00:19:43;93914.53;;;25.40;40.28
65127;BME280;51927;49.080;19.652;2022-11-20T00:19:48;93911.84;;;25.40;40.09
65127;BME280;51927;49.080;19.652;2022-11-20T00:19:53;93916.44;;;25.39;39.83
65127;BME280;51927;49.080;19.652;2022-11-20T00:19:58;93904.59;;;25.40;39.91
65127;BME280;51927;49.080;19.652;2022-11-20T00:20:03;93911.84;;;25.40;39.91
65127;BME280;51927;49.080;19.652;2022-11-20T00:20:09;93911.84;;;25.40;40.34
65127;BME280;51927;49.080;19.652;2022-11-20T00:20:15;93916.44;;;25.39;39.85
65127;BME280;51927;49.080;19.652;2022-11-20T00:20:20;93909.19;;;25.40;40.17
65127;BME280;51927;49.080;19.652;2022-11-20T00:20:25;93907.25;;;25.40;40.09
65127;BME280;51927;49.080;19.652;2022-11-20T00:20:30;93911.09;;;25.39;40.22
65127;BME280;51927;49.080;19.652;2022-11-20T00:20:35;93903.03;;;25.39;40.04
65127;BME280;51927;49.080;19.652;2022-11-20T00:20:40;93914.53;;;25.40;40.09
65127;BME280;51927;49.080;19.652;2022-11-20T00:20:46;93913.75;;;25.39;40.38
65127;BME280;51927;49.080;19.652;2022-11-20T00:20:51;93911.09;;;25.39;40.34
65127;BME280;51927;49.080;19.652;2022-11-20T00:21:28;93912.19;;;25.38;39.80
65127;BME280;51927;49.080;19.652;2022-11-20T00:21:29;93905.72;;;25.39;39.90
65127;BME280;51927;49.080;19.652;2022-11-20T00:21:33;93904.94;;;25.39;40.38
65127;BME280;51927;49.080;19.652;2022-11-20T00:21:38;93911.09;;;25.39;40.30
65127;BME280;51927;49.080;19.652;2022-11-20T00:21:43;93901.13;;;25.40;40.06
65127;BME280;51927;49.080;19.652;2022-11-20T00:21:48;93904.16;;;25.38;39.99
65127;BME280;51927;49.080;19.652;2022-11-20T00:21:56;93911.09;;;25.39;40.18
65127;BME280;51927;49.080;19.652;2022-11-20T00:22:01;93911.09;;;25.39;40.22
65127;BME280;51927;49.080;19.652;2022-11-20T00:22:06;93910.28;;;25.39;40.21
65127;BME280;51927;49.080;19.652;2022-11-20T00:22:11;93916.44;;;25.39;39.83
65127;BME280;51927;49.080;19.652;2022-11-20T00:22:16;93905.72;;;25.39;40.02
65127;BME280;51927;49.080;19.652;2022-11-20T00:22:22;93910.28;;;25.39;40.03
65127;BME280;51927;49.080;19.652;2022-11-20T00:22:27;93900.38;;;25.39;40.10
65127;BME280;51927;49.080;19.652;2022-11-20T00:22:32;93911.09;;;25.39;39.96
65127;BME280;51927;49.080;19.652;2022-11-20T00:22:37;93904.16;;;25.38;39.86
65127;BME280;51927;49.080;19.652;2022-11-20T00:22:42;93904.16;;;25.38;39.98
65127;BME280;51927;49.080;19.652;2022-11-20T00:22:48;93903.03;;;25.39;39.93
65127;BME280;51927;49.080;19.652;2022-11-20T00:22:54;93899.56;;;25.39;39.91
65127;BME280;51927;49.080;19.652;2022-11-20T00:22:59;93911.09;;;25.39;40.21
65127;BME280;51927;49.080;19.652;2022-11-20T00:23:04;93901.47;;;25.38;40.16
65127;BME280;51927;49.080;19.652;2022-11-20T00:23:10;93905.72;;;25.39;39.97
65127;BME280;51927;49.080;19.652;2022-11-20T00:23:16;93904.16;;;25.38;40.34
65127;BME280;51927;49.080;19.652;2022-11-20T00:23:21;93904.16;;;25.38;40.10
65127;BME280;51927;49.080;19.652;2022-11-20T00:23:26;93898.78;;;25.38;40.13
65127;BME280;51927;49.080;19.652;2022-11-20T00:23:31;93901.47;;;25.38;39.97
65127;BME280;51927;49.080;19.652;2022-11-20T00:23:36;93895.34;;;25.38;40.10
65127;BME280;51927;49.080;19.652;2022-11-20T00:23:42;93905.72;;;25.39;40.18
65127;BME280;51927;49.080;19.652;2022-11-20T00:23:48;93904.16;;;25.38;39.98
65127;BME280;51927;49.080;19.652;2022-11-20T00:23:54;93892.66;;;25.38;40.20
65127;BME280;51927;49.080;19.652;2022-11-20T00:23:59;93911.09;;;25.39;40.30
65127;BME280;51927;49.080;19.652;2022-11-20T00:24:05;93898.78;;;25.38;40.30
65127;BME280;51927;49.080;19.652;2022-11-20T00:24:10;93900.69;;;25.38;39.92
65127;BME280;51927;49.080;19.652;2022-11-20T00:24:15;93908.75;;;25.38;40.05
65127;BME280;51927;49.080;19.652;2022-11-20T00:24:20;93898.78;;;25.38;40.01
65127;BME280;51927;49.080;19.652;2022-11-20T00:24:26;93898.78;;;25.38;40.16
65127;BME280;51927;49.080;19.652;2022-11-20T00:24:31;93900.69;;;25.38;40.24
65127;BME280;51927;49.080;19.652;2022-11-20T00:24:36;93898.78;;;25.38;40.23
65127;BME280;51927;49.080;19.652;2022-11-20T00:24:41;93898.78;;;25.38;39.84
65127;BME280;51927;49.080;19.652;2022-11-20T00:24:47;93899.56;;;25.39;40.36
65127;BME280;51927;49.080;19.652;2022-11-20T00:24:52;93897.69;;;25.39;40.34
65127;BME280;51927;49.080;19.652;2022-11-20T00:24:57;93904.16;;;25.38;40.12
65127;BME280;51927;49.080;19.652;2022-11-20T00:25:02;93898.03;;;25.38;40.39
65127;BME280;51927;49.080;19.652;2022-11-20T00:25:08;93903.03;;;25.39;40.05
65127;BME280;51927;49.080;19.652;2022-11-20T00:25:13;93894.22;;;25.39;40.29
65127;BME280;51927;49.080;19.652;2022-11-20T00:25:18;93898.78;;;25.38;39.84
65127;BME280;51927;49.080;19.652;2022-11-20T00:25:23;93904.16;;;25.38;40.11
65127;BME280;51927;49.080;19.652;2022-11-20T00:25:28;93902.25;;;25.39;40.42
65127;BME280;51927;49.080;19.652;2022-11-20T00:25:34;93899.56;;;25.39;40.10
65127;BME280;51927;49.080;19.652;2022-11-20T00:25:40;93904.16;;;25.38;39.87
65127;BME280;51927;49.080;19.652;2022-11-20T00:25:45;93898.78;;;25.38;39.93
65127;BME280;51927;49.080;19.652;2022-11-20T00:25:50;93903.38;;;25.38;40.38
65127;BME280;51927;49.080;19.652;2022-11-20T00:25:55;93898.03;;;25.38;39.87
65127;BME280;51927;49.080;19.652;2022-11-20T00:26:04;93903.38;;;25.38;40.19
65127;BME280;51927;49.080;19.652;2022-11-20T00:26:11;93901.47;;;25.38;39.90
65127;BME280;51927;49.080;19.652;2022-11-20T00:26:17;93904.16;;;25.38;40.05
65127;BME280;51927;49.080;19.652;2022-11-20T00:26:23;93895.34;;;25.38;40.37
65127;BME280;51927;49.080;19.652;2022-11-20T00:26:29;93908.75;;;25.38;40.39
65127;BME280;51927;49.080;19.652;2022-11-20T00:26:35;93899.91;;;25.37;39.97
65127;BME280;51927;49.080;19.652;2022-11-20T00:26:40;93904.16;;;25.38;39.92
65127;BME280;51927;49.080;19.652;2022-11-20T00:26:45;93908.75;;;25.38;40.25
65127;BME280;51927;49.080;19.652;2022-11-20T00:26:50;93894.53;;;25.37;40.03
65127;BME280;51927;49.080;19.652;2022-11-20T00:26:55;93900.69;;;25.38;40.41
65127;BME280;51927;49.080;19.652;2022-11-20T00:27:00;93908.75;;;25.38;39.91
65127;BME280;51927;49.080;19.652;2022-11-20T00:27:05;93904.16;;;25.38;39.96
65127;BME280;51927;49.080;19.652;2022-11-20T00:27:11;93899.91;;;25.37;40.31
65127;BME280;51927;49.080;19.652;2022-11-20T00:27:16;93898.78;;;25.38;39.86
65127;BME280;51927;49.080;19.652;2022-11-20T00:27:21;93901.47;;;25.38;40.40
65127;BME280;51927;49.080;19.652;2022-11-20T00:27:26;93901.47;;;25.38;40.00
65127;BME280;51927;49.080;19.652;2022-11-20T00:27:31;93897.22;;;25.37;39.98
65127;BME280;51927;49.080;19.652;2022-11-20T00:27:37;93900.69;;;25.38;40.11
65127;BME280;51927;49.080;19.652;2022-11-20T00:27:42;93904.16;;;25.38;39.81
65127;BME280;51927;49.080;19.652;2022-11-20T00:27:47;93901.47;;;25.38;40.41
65127;BME280;51927;49.080;19.652;2022-11-20T00:27:53;93902.59;;;25.37;40.43
65127;BME280;51927;49.080;19.652;2022-11-20T00:27:58;93900.69;;;25.38;40.42
65127;BME280;51927;49.080;19.652;2022-11-20T00:28:03;93898.78;;;25.38;39.92
65127;BME280;51927;49.080;19.652;2022-11-20T00:28:08;93904.94;;;25.39;39.84
65127;BME280;51927;49.080;19.652;2022-11-20T00:28:13;93898.78;;;25.38;40.21
65127;BME280;51927;49.080;19.652;2022-11-20T00:28:18;93893.44;;;25.38;40.25
65127;BME280;51927;49.080;19.652;2022-11-20T00:28:24;93891.88;;;25.37;40.08
65127;BME280;51927;49.080;19.652;2022-11-20T00:28:29;93901.47;;;25.38;40.13
65127;BME280;51927;49.080;19.652;2022-11-20T00:28:34;93898.78;;;25.38;40.04
65127;BME280;51927;49.080;19.652;2022-11-20T00:28:39;93894.22;;;25.39;39.86
65127;BME280;51927;49.080;19.652;2022-11-20T00:28:49;93898.78;;;25.38;40.06
65127;BME280;51927;49.080;19.652;2022-11-20T00:28:56;93896.13;;;25.38;39.91
65127;BME280;51927;49.080;19.652;2022-11-20T00:29:02;93900.69;;;25.38;40.04